SVR2146 UUBW-UBBB
Flight info
| Callsign | SVR2146 |
|---|---|
| Flight time | N/A |
| Altitude | 35000 |
| Route | LINRU2B LINRU T614 OSPER T828 OLBEG N72 WGD A927 SL A964 NOKLI N72 BISNA/N0463F350 N72 NOBVA |
| Aircraft | A20N/M-SDE2E3FGHIRWXY/LB1 |
Departure
| Time | 2026-04-29 12:12 |
|---|---|
| Airport | Zhukovsky International Airport (UUBW) |
Arrival
| Time | N/A |
|---|---|
| Airport | Heydar Aliyev International Airport (UBBB) |
| Time | Latitude | Longitude | Altitude | Speed | Heading |
|---|---|---|---|---|---|
| 2026-04-29 11:58 | 55.56480 | 38.11980 | 391 ft | 0 kts | 139° |
| 2026-04-29 12:02 | 55.56452 | 38.12024 | 398 ft | 12 kts | 139° |
| 2026-04-29 12:02 | 55.56372 | 38.12188 | 395 ft | 22 kts | 130° |
| 2026-04-29 12:02 | 55.56276 | 38.12381 | 395 ft | 17 kts | 131° |
| 2026-04-29 12:02 | 55.56191 | 38.12554 | 399 ft | 20 kts | 130° |
| 2026-04-29 12:03 | 55.56109 | 38.12760 | 396 ft | 21 kts | 117° |
| 2026-04-29 12:03 | 55.56012 | 38.12968 | 395 ft | 23 kts | 129° |
| 2026-04-29 12:03 | 55.55904 | 38.13182 | 398 ft | 24 kts | 136° |
| 2026-04-29 12:03 | 55.55795 | 38.13410 | 395 ft | 25 kts | 130° |
| 2026-04-29 12:04 | 55.55717 | 38.13560 | 399 ft | 26 kts | 134° |
| 2026-04-29 12:04 | 55.55555 | 38.13880 | 398 ft | 27 kts | 130° |
| 2026-04-29 12:04 | 55.55427 | 38.14136 | 398 ft | 28 kts | 132° |
| 2026-04-29 12:04 | 55.55338 | 38.14309 | 397 ft | 29 kts | 132° |
| 2026-04-29 12:05 | 55.55203 | 38.14578 | 398 ft | 30 kts | 130° |
| 2026-04-29 12:05 | 55.55062 | 38.14860 | 396 ft | 31 kts | 131° |
| 2026-04-29 12:05 | 55.54918 | 38.15148 | 396 ft | 32 kts | 131° |
| 2026-04-29 12:05 | 55.54784 | 38.15419 | 396 ft | 24 kts | 130° |
| 2026-04-29 12:06 | 55.54686 | 38.15607 | 397 ft | 22 kts | 131° |
| 2026-04-29 12:06 | 55.54584 | 38.15816 | 398 ft | 23 kts | 130° |
| 2026-04-29 12:06 | 55.54471 | 38.16038 | 396 ft | 25 kts | 136° |
| 2026-04-29 12:06 | 55.54351 | 38.16269 | 396 ft | 26 kts | 131° |
| 2026-04-29 12:07 | 55.54277 | 38.16420 | 399 ft | 9 kts | 123° |
| 2026-04-29 12:07 | 55.54287 | 38.16529 | 394 ft | 10 kts | 57° |
| 2026-04-29 12:07 | 55.54316 | 38.16575 | 395 ft | 0 kts | 41° |
| 2026-04-29 12:08 | 55.54318 | 38.16582 | 396 ft | 2 kts | 51° |
| 2026-04-29 12:08 | 55.54323 | 38.16591 | 397 ft | 0 kts | 43° |
| 2026-04-29 12:09 | 55.54328 | 38.16598 | 388 ft | 3 kts | 43° |
| 2026-04-29 12:09 | 55.54367 | 38.16655 | 399 ft | 12 kts | 40° |
| 2026-04-29 12:09 | 55.54442 | 38.16676 | 400 ft | 10 kts | 303° |
| 2026-04-29 12:09 | 55.54461 | 38.16619 | 397 ft | 0 kts | 309° |
| 2026-04-29 12:11 | 55.54535 | 38.16473 | 395 ft | 46 kts | 315° |
| 2026-04-29 12:12 | 55.54893 | 38.15762 | 398 ft | 105 kts | 311° |
| 2026-04-29 12:12 | 55.55475 | 38.14596 | 397 ft | 146 kts | 311° |
| 2026-04-29 12:12 | 55.56197 | 38.13184 | 738 ft | 160 kts | 312° |
| 2026-04-29 12:12 | 55.56931 | 38.11755 | 1648 ft | 143 kts | 312° |
| 2026-04-29 12:13 | 55.57563 | 38.10427 | 2324 ft | 146 kts | 307° |
| 2026-04-29 12:13 | 55.58001 | 38.08464 | 2285 ft | 196 kts | 273° |
| 2026-04-29 12:13 | 55.57619 | 38.06022 | 2768 ft | 223 kts | 239° |
| 2026-04-29 12:13 | 55.56401 | 38.04098 | 3344 ft | 251 kts | 209° |
| 2026-04-29 12:14 | 55.54712 | 38.03003 | 4086 ft | 265 kts | 199° |
| 2026-04-29 12:14 | 55.52928 | 38.02075 | 5043 ft | 269 kts | 200° |
| 2026-04-29 12:14 | 55.51154 | 38.01002 | 6056 ft | 269 kts | 203° |
| 2026-04-29 12:14 | 55.49409 | 37.99766 | 7015 ft | 270 kts | 206° |
| 2026-04-29 12:15 | 55.47691 | 37.98433 | 7658 ft | 276 kts | 207° |
| 2026-04-29 12:15 | 55.45916 | 37.96996 | 7913 ft | 277 kts | 207° |
| 2026-04-29 12:15 | 55.44170 | 37.95562 | 7998 ft | 277 kts | 207° |
| 2026-04-29 12:15 | 55.42427 | 37.94128 | 7999 ft | 276 kts | 207° |
| 2026-04-29 12:16 | 55.40685 | 37.92699 | 8001 ft | 276 kts | 207° |
| 2026-04-29 12:16 | 55.38836 | 37.91705 | 8017 ft | 283 kts | 187° |
| 2026-04-29 12:16 | 55.36867 | 37.92029 | 8473 ft | 288 kts | 167° |
| 2026-04-29 12:16 | 55.34920 | 37.92917 | 9359 ft | 290 kts | 167° |
| 2026-04-29 12:17 | 55.32961 | 37.93784 | 9803 ft | 291 kts | 168° |
| 2026-04-29 12:17 | 55.31000 | 37.94643 | 9974 ft | 291 kts | 168° |
| 2026-04-29 12:17 | 55.30366 | 37.94921 | 9985 ft | 291 kts | 168° |
| 2026-04-29 12:18 | 55.22778 | 37.98013 | 9996 ft | 288 kts | 181° |
| 2026-04-29 12:18 | 55.20796 | 37.97585 | 10244 ft | 288 kts | 200° |
| 2026-04-29 12:18 | 55.18914 | 37.96385 | 10989 ft | 289 kts | 202° |
| 2026-04-29 12:19 | 55.17017 | 37.95185 | 11751 ft | 294 kts | 202° |
| 2026-04-29 12:19 | 55.15055 | 37.93965 | 12487 ft | 301 kts | 201° |
| 2026-04-29 12:19 | 55.13076 | 37.92738 | 13215 ft | 306 kts | 201° |
| 2026-04-29 12:19 | 55.11033 | 37.91495 | 13938 ft | 313 kts | 198° |
| 2026-04-29 12:20 | 55.09630 | 37.90909 | 14377 ft | 316 kts | 190° |
| 2026-04-29 12:20 | 55.06647 | 37.90256 | 14973 ft | 334 kts | 187° |
| 2026-04-29 12:20 | 55.04290 | 37.89755 | 15409 ft | 345 kts | 187° |
| 2026-04-29 12:20 | 55.01888 | 37.89287 | 16091 ft | 349 kts | 183° |
| 2026-04-29 12:21 | 55.00270 | 37.89309 | 16540 ft | 352 kts | 175° |
| 2026-04-29 12:21 | 54.97846 | 37.90043 | 17209 ft | 356 kts | 163° |